createdAt,value
2023-04-06T00:00:46.571Z,2.84
2023-04-06T00:01:46.382Z,2.81
2023-04-06T00:02:46.371Z,2.80
2023-04-06T00:03:46.407Z,2.77
2023-04-06T00:04:46.312Z,2.73
2023-04-06T00:05:46.303Z,2.74
2023-04-06T00:06:46.317Z,2.69
2023-04-06T00:07:46.289Z,2.69
2023-04-06T00:08:46.288Z,2.68
2023-04-06T00:09:46.263Z,2.65
2023-04-06T00:10:46.254Z,2.66
2023-04-06T00:11:46.229Z,2.63
2023-04-06T00:12:46.259Z,2.63
2023-04-06T00:13:46.230Z,2.62
2023-04-06T00:14:46.214Z,2.62
2023-04-06T00:15:46.182Z,2.59
2023-04-06T00:16:46.275Z,2.58
2023-04-06T00:17:46.219Z,2.55
2023-04-06T00:18:46.184Z,2.53
2023-04-06T00:19:46.148Z,2.51
2023-04-06T00:20:46.170Z,2.50
2023-04-06T00:21:46.146Z,2.50
2023-04-06T00:22:46.116Z,2.48
2023-04-06T00:23:46.125Z,2.47
2023-04-06T00:24:46.093Z,2.44
2023-04-06T00:25:46.092Z,2.44
2023-04-06T00:26:46.076Z,2.43
2023-04-06T00:27:46.045Z,2.41
2023-04-06T00:28:46.042Z,2.40
2023-04-06T00:29:46.051Z,2.38
2023-04-06T00:30:46.017Z,2.38
2023-04-06T00:31:46.060Z,2.37
2023-04-06T00:32:46.032Z,2.36
2023-04-06T00:33:46.013Z,2.33
2023-04-06T00:34:46.001Z,2.30
2023-04-06T00:35:46.053Z,2.29
2023-04-06T00:36:45.964Z,2.29
2023-04-06T00:37:45.943Z,2.29
2023-04-06T00:38:45.998Z,2.26
2023-04-06T00:39:45.921Z,2.25
2023-04-06T00:40:45.952Z,2.23
2023-04-06T00:41:45.899Z,2.23
2023-04-06T00:42:45.913Z,2.23
2023-04-06T00:43:45.873Z,2.20
2023-04-06T00:44:45.869Z,2.19
2023-04-06T00:45:45.934Z,2.15
2023-04-06T00:46:45.868Z,2.14
2023-04-06T00:47:45.898Z,2.11
2023-04-06T00:48:45.822Z,2.09
2023-04-06T00:49:45.803Z,2.07
2023-04-06T00:50:45.815Z,2.07
2023-04-06T00:51:45.788Z,2.04
2023-04-06T00:52:45.781Z,2.01
2023-04-06T00:53:45.763Z,2.00
2023-04-06T00:54:45.757Z,1.95
2023-04-06T00:55:45.772Z,1.92
2023-04-06T00:56:45.733Z,1.93
2023-04-06T00:57:45.714Z,1.92
2023-04-06T00:58:45.713Z,1.90
2023-04-06T00:59:45.706Z,1.90
2023-04-06T01:00:45.688Z,1.89
2023-04-06T01:01:45.793Z,1.89
2023-04-06T01:02:45.680Z,1.88
2023-04-06T01:03:45.650Z,1.86
2023-04-06T01:04:45.639Z,1.83
2023-04-06T01:05:45.725Z,1.83
2023-04-06T01:06:45.654Z,1.82
2023-04-06T01:07:45.752Z,1.79
2023-04-06T01:08:45.623Z,1.75
2023-04-06T01:09:45.583Z,1.77
2023-04-06T01:10:45.576Z,1.77
2023-04-06T01:11:45.605Z,1.75
2023-04-06T01:12:45.560Z,1.77
2023-04-06T01:13:45.543Z,1.74
2023-04-06T01:14:45.549Z,1.74
2023-04-06T01:15:45.604Z,1.74
2023-04-06T01:16:45.531Z,1.74
2023-04-06T01:17:45.619Z,1.74
2023-04-06T01:18:45.495Z,1.74
2023-04-06T01:19:45.472Z,1.74
2023-04-06T01:20:45.468Z,1.72
2023-04-06T01:21:45.469Z,1.71
2023-04-06T01:22:45.440Z,1.71
2023-04-06T01:23:45.429Z,1.68
2023-04-06T01:24:45.424Z,1.70
2023-04-06T01:25:45.402Z,1.68
2023-04-06T01:26:45.436Z,1.70
2023-04-06T01:27:45.381Z,1.68
2023-04-06T01:28:45.374Z,1.68
2023-04-06T01:29:45.357Z,1.65
2023-04-06T01:30:45.352Z,1.65
2023-04-06T01:31:45.400Z,1.64
2023-04-06T01:32:45.412Z,1.63
2023-04-06T01:33:45.318Z,1.63
2023-04-06T01:34:45.313Z,1.63
2023-04-06T01:35:45.343Z,1.61
2023-04-06T01:36:45.307Z,1.61
2023-04-06T01:37:45.285Z,1.60
2023-04-06T01:38:45.281Z,1.57
2023-04-06T01:39:45.247Z,1.56
2023-04-06T01:40:45.260Z,1.54
2023-04-06T01:41:45.223Z,1.50
2023-04-06T01:42:45.217Z,1.49
2023-04-06T01:43:45.215Z,1.49
2023-04-06T01:44:45.212Z,1.47
2023-04-06T01:45:45.169Z,1.44
2023-04-06T01:46:45.264Z,1.44
2023-04-06T01:47:45.167Z,1.43
2023-04-06T01:48:45.147Z,1.42
2023-04-06T01:49:45.156Z,1.39
2023-04-06T01:50:45.117Z,1.39
2023-04-06T01:51:45.107Z,1.39
2023-04-06T01:52:45.098Z,1.36
2023-04-06T01:53:45.087Z,1.36
2023-04-06T01:54:45.105Z,1.36
2023-04-06T01:55:45.073Z,1.35
2023-04-06T01:56:45.052Z,1.34
2023-04-06T01:57:45.037Z,1.32
2023-04-06T01:58:45.033Z,1.31
2023-04-06T01:59:45.028Z,1.29
2023-04-06T02:00:45.034Z,1.28
2023-04-06T02:01:45.013Z,1.28
2023-04-06T02:02:45.010Z,1.25
2023-04-06T02:03:44.972Z,1.25
2023-04-06T02:04:44.979Z,1.24
2023-04-06T02:05:44.954Z,1.21
2023-04-06T02:06:44.953Z,1.21
2023-04-06T02:07:44.930Z,1.20
2023-04-06T02:08:44.933Z,1.18
2023-04-06T02:09:44.935Z,1.18
2023-04-06T02:10:44.893Z,1.17
2023-04-06T02:11:44.885Z,1.14
2023-04-06T02:12:44.878Z,1.16
2023-04-06T02:13:44.877Z,1.14
2023-04-06T02:14:44.882Z,1.14
2023-04-06T02:15:44.841Z,1.14
2023-04-06T02:16:44.863Z,1.14
2023-04-06T02:17:44.860Z,1.13
2023-04-06T02:18:44.831Z,1.11
2023-04-06T02:19:44.821Z,1.11
2023-04-06T02:20:44.788Z,1.13
2023-04-06T02:21:44.770Z,1.11
2023-04-06T02:22:44.784Z,1.11
2023-04-06T02:23:44.761Z,1.11
2023-04-06T02:24:44.765Z,1.11
2023-04-06T02:25:44.781Z,1.10
2023-04-06T02:26:44.718Z,1.10
2023-04-06T02:27:44.706Z,1.10
2023-04-06T02:28:44.717Z,1.08
2023-04-06T02:29:44.704Z,1.07
2023-04-06T02:30:44.678Z,1.04
2023-04-06T02:31:44.720Z,1.02
2023-04-06T02:32:44.689Z,1.00
2023-04-06T02:33:44.640Z,0.99
2023-04-06T02:34:44.644Z,0.98
2023-04-06T02:35:44.722Z,0.96
2023-04-06T02:36:44.613Z,0.95
2023-04-06T02:37:44.609Z,0.95
2023-04-06T02:38:44.600Z,0.93
2023-04-06T02:39:44.595Z,0.93
2023-04-06T02:40:44.565Z,0.92
2023-04-06T02:41:44.554Z,0.93
2023-04-06T02:42:44.540Z,0.92
2023-04-06T02:43:44.533Z,0.93
2023-04-06T02:44:44.542Z,0.93
2023-04-06T02:45:44.524Z,0.93
2023-04-06T02:46:44.507Z,0.92
2023-04-06T02:47:44.581Z,0.92
2023-04-06T02:48:44.467Z,0.89
2023-04-06T02:49:45.487Z,0.88
2023-04-06T02:50:44.460Z,0.88
2023-04-06T02:51:44.444Z,0.88
2023-04-06T02:52:44.434Z,0.88
2023-04-06T02:53:44.416Z,0.88
2023-04-06T02:54:44.449Z,0.88
2023-04-06T02:55:44.415Z,0.88
2023-04-06T02:56:44.386Z,0.86
2023-04-06T02:57:44.378Z,0.88
2023-04-06T02:58:44.364Z,0.88
2023-04-06T02:59:44.437Z,0.88
2023-04-06T03:00:44.348Z,0.86
2023-04-06T03:01:44.405Z,0.84
2023-04-06T03:02:44.421Z,0.86
2023-04-06T03:03:44.445Z,0.86
2023-04-06T03:04:44.328Z,0.84
2023-04-06T03:05:44.288Z,0.82
2023-04-06T03:06:44.273Z,0.81
2023-04-06T03:07:44.262Z,0.80
2023-04-06T03:08:44.248Z,0.78
2023-04-06T03:09:44.260Z,0.78
2023-04-06T03:10:44.243Z,0.78
2023-04-06T03:11:44.214Z,0.77
2023-04-06T03:12:44.220Z,0.77
2023-04-06T03:13:44.194Z,0.74
2023-04-06T03:14:44.207Z,0.74
2023-04-06T03:15:44.199Z,0.74
2023-04-06T03:16:44.161Z,0.72
2023-04-06T03:17:44.197Z,0.71
2023-04-06T03:18:44.145Z,0.72
2023-04-06T03:19:44.146Z,0.72
2023-04-06T03:20:44.134Z,0.72
2023-04-06T03:21:44.118Z,0.72
2023-04-06T03:22:44.090Z,0.72
2023-04-06T03:23:44.086Z,0.71
2023-04-06T03:24:44.088Z,0.71
2023-04-06T03:25:44.053Z,0.70
2023-04-06T03:26:44.044Z,0.68
2023-04-06T03:27:44.039Z,0.68
2023-04-06T03:28:44.022Z,0.64
2023-04-06T03:29:44.039Z,0.63
2023-04-06T03:30:43.999Z,0.63
2023-04-06T03:31:44.116Z,0.62
2023-04-06T03:32:44.029Z,0.60
2023-04-06T03:33:43.977Z,0.59
2023-04-06T03:34:43.977Z,0.60
2023-04-06T03:35:43.975Z,0.57
2023-04-06T03:36:43.930Z,0.59
2023-04-06T03:37:43.920Z,0.59
2023-04-06T03:38:43.916Z,0.59
2023-04-06T03:39:43.924Z,0.57
2023-04-06T03:40:43.893Z,0.56
2023-04-06T03:41:43.880Z,0.56
2023-04-06T03:42:43.872Z,0.56
2023-04-06T03:43:43.877Z,0.53
2023-04-06T03:44:43.913Z,0.52
2023-04-06T03:45:43.835Z,0.51
2023-04-06T03:46:43.875Z,0.49
2023-04-06T03:47:43.824Z,0.49
2023-04-06T03:48:43.803Z,0.49
2023-04-06T03:49:43.808Z,0.48
2023-04-06T03:50:43.781Z,0.48
2023-04-06T03:51:43.773Z,0.48
2023-04-06T03:52:43.744Z,0.45
2023-04-06T03:53:43.740Z,0.44
2023-04-06T03:54:43.754Z,0.43
2023-04-06T03:55:43.715Z,0.41
2023-04-06T03:56:43.698Z,0.41
2023-04-06T03:57:43.693Z,0.41
2023-04-06T03:58:43.674Z,0.40
2023-04-06T03:59:43.734Z,0.40
2023-04-06T04:00:43.653Z,0.40
2023-04-06T04:01:43.696Z,0.40
2023-04-06T04:02:43.755Z,0.38
2023-04-06T04:03:43.743Z,0.38
2023-04-06T04:04:43.666Z,0.37
2023-04-06T04:05:43.607Z,0.37
2023-04-06T04:06:43.635Z,0.35
2023-04-06T04:07:43.583Z,0.37
2023-04-06T04:08:43.571Z,0.37
2023-04-06T04:09:43.581Z,0.37
2023-04-06T04:10:43.541Z,0.38
2023-04-06T04:11:43.538Z,0.35
2023-04-06T04:12:43.529Z,0.37
2023-04-06T04:13:43.513Z,0.35
2023-04-06T04:14:43.523Z,0.33
2023-04-06T04:15:43.516Z,0.34
2023-04-06T04:16:43.562Z,0.33
2023-04-06T04:17:44.331Z,0.31
2023-04-06T04:18:43.447Z,0.31
2023-04-06T04:19:43.481Z,0.30
2023-04-06T04:20:43.436Z,0.30
2023-04-06T04:21:43.424Z,0.28
2023-04-06T04:22:43.416Z,0.30
2023-04-06T04:23:43.415Z,0.28
2023-04-06T04:24:43.400Z,0.28
2023-04-06T04:25:43.387Z,0.26
2023-04-06T04:26:43.377Z,0.28
2023-04-06T04:27:43.385Z,0.26
2023-04-06T04:28:43.341Z,0.28
2023-04-06T04:29:43.361Z,0.28
2023-04-06T04:30:43.337Z,0.26
2023-04-06T04:31:43.364Z,0.26
2023-04-06T04:32:43.323Z,0.25
2023-04-06T04:33:43.300Z,0.23
2023-04-06T04:34:43.302Z,0.23
2023-04-06T04:35:43.308Z,0.23
2023-04-06T04:36:43.281Z,0.22
2023-04-06T04:37:43.277Z,0.20
2023-04-06T04:38:43.238Z,0.20
2023-04-06T04:39:43.257Z,0.20
2023-04-06T04:40:43.214Z,0.19
2023-04-06T04:41:43.221Z,0.19
2023-04-06T04:42:43.206Z,0.17
2023-04-06T04:43:43.198Z,0.19
2023-04-06T04:44:43.199Z,0.20
2023-04-06T04:45:43.185Z,0.19
2023-04-06T04:46:43.157Z,0.19
2023-04-06T04:47:43.194Z,0.17
2023-04-06T04:48:43.134Z,0.17
2023-04-06T04:49:43.162Z,0.17
2023-04-06T04:50:43.109Z,0.17
2023-04-06T04:51:43.119Z,0.19
2023-04-06T04:52:43.098Z,0.17
2023-04-06T04:53:43.077Z,0.17
2023-04-06T04:54:43.090Z,0.16
2023-04-06T04:55:43.059Z,0.16
2023-04-06T04:56:43.060Z,0.15
2023-04-06T04:57:43.076Z,0.15
2023-04-06T04:58:43.036Z,0.16
2023-04-06T04:59:43.036Z,0.16
2023-04-06T05:00:43.003Z,0.16
2023-04-06T05:01:54.156Z,0.19
2023-04-06T05:02:43.127Z,0.19
2023-04-06T05:03:43.127Z,0.19
2023-04-06T05:04:42.982Z,0.19
2023-04-06T05:05:42.946Z,0.19
2023-04-06T05:06:42.934Z,0.20
2023-04-06T05:07:42.933Z,0.20
2023-04-06T05:08:42.927Z,0.20
2023-04-06T05:09:42.926Z,0.20
2023-04-06T05:10:42.887Z,0.20
2023-04-06T05:11:42.891Z,0.20
2023-04-06T05:12:42.866Z,0.22
2023-04-06T05:13:42.866Z,0.23
2023-04-06T05:14:42.869Z,0.25
2023-04-06T05:15:42.863Z,0.26
2023-04-06T05:16:42.829Z,0.28
2023-04-06T05:17:42.890Z,0.26
2023-04-06T05:18:42.804Z,0.26
2023-04-06T05:19:42.808Z,0.26
2023-04-06T05:20:42.786Z,0.26
2023-04-06T05:21:42.779Z,0.26
2023-04-06T05:22:42.758Z,0.26
2023-04-06T05:23:42.753Z,0.30
2023-04-06T05:24:42.759Z,0.30
2023-04-06T05:25:42.721Z,0.30
2023-04-06T05:26:42.718Z,0.33
2023-04-06T05:27:42.714Z,0.35
2023-04-06T05:28:42.686Z,0.37
2023-04-06T05:29:42.701Z,0.38
2023-04-06T05:30:42.663Z,0.40
2023-04-06T05:31:42.793Z,0.41
2023-04-06T05:32:42.659Z,0.44
2023-04-06T05:33:42.639Z,0.49
2023-04-06T05:34:42.699Z,0.51
2023-04-06T05:35:42.655Z,0.56
2023-04-06T05:36:42.618Z,0.60
2023-04-06T05:37:42.593Z,0.63
2023-04-06T05:38:42.614Z,0.63
2023-04-06T05:39:42.592Z,0.67
2023-04-06T05:40:42.569Z,0.70
2023-04-06T05:41:42.540Z,0.74
2023-04-06T05:42:42.523Z,0.75
2023-04-06T05:43:42.524Z,0.78
2023-04-06T05:44:42.545Z,0.81
2023-04-06T05:45:42.514Z,0.84
2023-04-06T05:46:42.537Z,0.88
2023-04-06T05:47:42.516Z,0.90
2023-04-06T05:48:42.493Z,0.92
2023-04-06T05:49:42.505Z,0.96
2023-04-06T05:50:42.455Z,1.00
2023-04-06T05:51:42.434Z,1.04
2023-04-06T05:52:42.410Z,1.07
2023-04-06T05:53:42.408Z,1.10
2023-04-06T05:54:42.410Z,1.13
2023-04-06T05:55:42.401Z,1.18
2023-04-06T05:56:42.375Z,1.20
2023-04-06T05:57:42.373Z,1.24
2023-04-06T05:58:42.351Z,1.28
2023-04-06T05:59:42.480Z,1.31
2023-04-06T06:00:42.319Z,1.35
2023-04-06T06:01:42.318Z,1.42
2023-04-06T06:02:42.314Z,1.46
2023-04-06T06:03:42.311Z,1.50
2023-04-06T06:04:42.314Z,1.53
2023-04-06T06:05:42.266Z,1.57
2023-04-06T06:06:42.262Z,1.63
2023-04-06T06:07:42.243Z,1.67
2023-04-06T06:08:42.227Z,1.74
2023-04-06T06:09:42.240Z,1.82
2023-04-06T06:10:42.209Z,1.89
2023-04-06T06:11:42.221Z,1.95
2023-04-06T06:12:42.191Z,2.05
2023-04-06T06:13:42.198Z,2.12
2023-04-06T06:14:42.198Z,2.20
2023-04-06T06:15:42.169Z,2.26
2023-04-06T06:16:42.186Z,2.33
2023-04-06T06:17:42.178Z,2.38
2023-04-06T06:18:42.133Z,2.45
2023-04-06T06:19:42.131Z,2.51
2023-04-06T06:20:42.092Z,2.58
2023-04-06T06:21:42.092Z,2.63
2023-04-06T06:22:42.080Z,2.74
2023-04-06T06:23:42.099Z,2.80
2023-04-06T06:24:42.077Z,2.89
2023-04-06T06:25:42.060Z,2.97
2023-04-06T06:26:42.049Z,3.01
2023-04-06T06:27:42.053Z,3.08
2023-04-06T06:28:42.049Z,3.16
2023-04-06T06:29:42.019Z,3.25
2023-04-06T06:30:42.005Z,3.31
2023-04-06T06:31:42.034Z,3.34
2023-04-06T06:32:42.009Z,3.42
2023-04-06T06:33:41.964Z,3.49
2023-04-06T06:34:41.964Z,3.54
2023-04-06T06:35:41.959Z,3.63
2023-04-06T06:36:41.927Z,3.68
2023-04-06T06:37:41.914Z,3.74
2023-04-06T06:38:41.936Z,3.84
2023-04-06T06:39:41.902Z,3.88
2023-04-06T06:40:41.879Z,3.98
2023-04-06T06:41:41.891Z,4.04
2023-04-06T06:42:41.867Z,4.11
2023-04-06T06:43:41.846Z,4.16
2023-04-06T06:44:41.858Z,4.18
2023-04-06T06:45:41.894Z,4.24
2023-04-06T06:46:41.839Z,4.31
2023-04-06T06:47:41.842Z,4.38
2023-04-06T06:48:41.796Z,4.46
2023-04-06T06:49:41.795Z,4.53
2023-04-06T06:50:41.793Z,4.61
2023-04-06T06:51:41.753Z,4.65
2023-04-06T06:52:41.752Z,4.65
2023-04-06T06:53:41.747Z,4.74
2023-04-06T06:54:41.753Z,4.74
2023-04-06T06:55:41.757Z,4.84
2023-04-06T06:56:41.724Z,4.88
2023-04-06T06:57:41.686Z,4.86
2023-04-06T06:58:41.774Z,4.91
2023-04-06T06:59:41.711Z,5.01
2023-04-06T07:00:41.678Z,5.12
2023-04-06T07:01:41.686Z,5.20
2023-04-06T07:02:41.692Z,5.29
2023-04-06T07:03:41.620Z,5.38
2023-04-06T07:04:41.646Z,5.45
2023-04-06T07:05:41.641Z,5.52
2023-04-06T07:06:41.592Z,5.60
2023-04-06T07:07:41.583Z,5.70
2023-04-06T07:08:41.596Z,5.81
2023-04-06T07:09:41.642Z,5.88
2023-04-06T07:10:41.598Z,5.95
2023-04-06T07:11:41.525Z,6.02
2023-04-06T07:12:41.520Z,6.08
2023-04-06T07:13:41.511Z,6.16
2023-04-06T07:14:41.522Z,6.24
2023-04-06T07:15:41.512Z,6.27
2023-04-06T07:16:41.556Z,6.32
2023-04-06T07:17:41.491Z,6.38
2023-04-06T07:18:41.450Z,6.46
2023-04-06T07:19:41.452Z,6.51
2023-04-06T07:20:41.453Z,6.55
2023-04-06T07:21:41.436Z,6.58
2023-04-06T07:22:41.443Z,6.60
2023-04-06T07:23:41.398Z,6.69
2023-04-06T07:24:41.432Z,6.75
2023-04-06T07:25:41.399Z,6.79
2023-04-06T07:26:41.379Z,6.87
2023-04-06T07:27:41.346Z,6.90
2023-04-06T07:28:41.360Z,6.99
2023-04-06T07:29:41.346Z,7.09
2023-04-06T07:30:41.320Z,7.16
2023-04-06T07:31:41.326Z,7.15
2023-04-06T07:32:41.356Z,7.21
2023-04-06T07:33:41.278Z,7.24
2023-04-06T07:34:41.297Z,7.33
2023-04-06T07:35:41.376Z,7.29
2023-04-06T07:36:41.246Z,7.32
2023-04-06T07:37:41.241Z,7.30
2023-04-06T07:38:41.220Z,7.18
2023-04-06T07:39:41.243Z,6.99
2023-04-06T07:40:41.215Z,7.01
2023-04-06T07:41:41.197Z,7.04
2023-04-06T07:42:41.179Z,7.18
2023-04-06T07:43:41.173Z,7.21
2023-04-06T07:44:41.168Z,7.36
2023-04-06T07:45:41.221Z,7.45
2023-04-06T07:46:41.140Z,7.55
2023-04-06T07:47:41.160Z,7.55
2023-04-06T07:48:41.114Z,7.60
2023-04-06T07:49:41.134Z,7.54
2023-04-06T07:50:41.084Z,7.67
2023-04-06T07:51:41.077Z,7.86
2023-04-06T07:52:41.067Z,7.99
2023-04-06T07:53:41.067Z,8.10
2023-04-06T07:54:41.068Z,8.24
2023-04-06T07:55:41.049Z,8.34
2023-04-06T07:56:41.014Z,8.42
2023-04-06T07:57:41.012Z,8.42
2023-04-06T07:58:40.994Z,8.43
2023-04-06T07:59:41.054Z,8.47
2023-04-06T08:00:40.992Z,8.55
2023-04-06T08:01:40.970Z,8.65
2023-04-06T08:02:41.023Z,8.79
2023-04-06T08:03:41.096Z,8.76
2023-04-06T08:04:41.320Z,8.70
2023-04-06T08:05:40.921Z,8.83
2023-04-06T08:06:40.911Z,8.98
2023-04-06T08:07:40.920Z,9.15
2023-04-06T08:08:40.892Z,9.24
2023-04-06T08:09:40.887Z,9.16
2023-04-06T08:10:40.862Z,9.08
2023-04-06T08:11:40.880Z,9.06
2023-04-06T08:12:40.840Z,8.94
2023-04-06T08:13:40.829Z,8.78
2023-04-06T08:14:40.831Z,8.68
2023-04-06T08:15:40.842Z,8.73
2023-04-06T08:16:40.789Z,8.76
2023-04-06T08:17:40.820Z,8.73
2023-04-06T08:18:40.765Z,8.76
2023-04-06T08:19:40.768Z,8.79
2023-04-06T08:20:40.778Z,8.88
2023-04-06T08:21:40.735Z,8.79
2023-04-06T08:22:40.733Z,8.94
2023-04-06T08:23:40.709Z,9.20
2023-04-06T08:24:40.695Z,9.32
2023-04-06T08:25:40.725Z,9.41
2023-04-06T08:26:40.698Z,9.38
2023-04-06T08:27:40.680Z,9.45
2023-04-06T08:28:40.665Z,9.63
2023-04-06T08:29:40.642Z,9.42
2023-04-06T08:30:40.633Z,9.37
2023-04-06T08:31:40.722Z,9.56
2023-04-06T08:32:40.638Z,9.80
2023-04-06T08:33:40.602Z,10.04
2023-04-06T08:34:40.589Z,10.14
2023-04-06T08:35:40.634Z,10.31
2023-04-06T08:36:40.564Z,10.51
2023-04-06T08:37:40.588Z,10.65
2023-04-06T08:38:40.549Z,10.76
2023-04-06T08:39:40.535Z,10.93
2023-04-06T08:40:40.520Z,10.93
2023-04-06T08:41:40.515Z,10.88
2023-04-06T08:42:40.527Z,10.80
2023-04-06T08:43:40.494Z,10.70
2023-04-06T08:44:40.472Z,10.81
2023-04-06T08:45:40.464Z,10.94
2023-04-06T08:46:40.488Z,11.01
2023-04-06T08:47:40.477Z,11.09
2023-04-06T08:48:40.455Z,11.01
2023-04-06T08:49:40.443Z,11.11
2023-04-06T08:50:40.404Z,11.01
2023-04-06T08:51:40.403Z,11.19
2023-04-06T08:52:40.388Z,11.30
2023-04-06T08:53:40.398Z,11.20
2023-04-06T08:54:40.372Z,10.98
2023-04-06T08:55:40.350Z,10.84
2023-04-06T08:56:40.332Z,10.84
2023-04-06T08:57:40.342Z,11.02
2023-04-06T08:58:40.346Z,10.75
2023-04-06T08:59:40.392Z,10.73
2023-04-06T09:00:40.293Z,10.69
2023-04-06T09:01:40.306Z,10.80
2023-04-06T09:02:40.315Z,10.87
2023-04-06T09:03:40.344Z,10.62
2023-04-06T09:04:40.292Z,10.65
2023-04-06T09:05:40.242Z,10.91
2023-04-06T09:06:40.218Z,11.16
2023-04-06T09:07:40.215Z,11.16
2023-04-06T09:08:40.198Z,11.17
2023-04-06T09:09:40.643Z,11.20
2023-04-06T09:10:40.175Z,11.24
2023-04-06T09:11:40.165Z,11.41
2023-04-06T09:12:40.153Z,11.64
2023-04-06T09:13:40.139Z,11.84
2023-04-06T09:14:40.137Z,12.00
2023-04-06T09:15:40.139Z,11.90
2023-04-06T09:16:40.403Z,11.93
2023-04-06T09:17:40.114Z,12.05
2023-04-06T09:18:40.077Z,12.05
2023-04-06T09:19:40.083Z,12.19
2023-04-06T09:20:40.086Z,12.19
2023-04-06T09:21:40.060Z,11.77
2023-04-06T09:22:40.039Z,11.96
2023-04-06T09:23:40.099Z,11.87
2023-04-06T09:24:40.015Z,11.94
2023-04-06T09:25:40.010Z,12.01
2023-04-06T09:26:40.019Z,12.30
2023-04-06T09:27:40.001Z,12.54
2023-04-06T09:28:39.971Z,12.62
2023-04-06T09:29:39.962Z,12.62
2023-04-06T09:30:39.946Z,12.70
2023-04-06T09:31:40.071Z,12.70
2023-04-06T09:32:39.984Z,12.71
2023-04-06T09:33:39.923Z,12.67
2023-04-06T09:34:39.916Z,12.58
2023-04-06T09:35:39.901Z,12.69
2023-04-06T09:36:39.897Z,12.54
2023-04-06T09:37:39.892Z,12.77
2023-04-06T09:38:39.864Z,12.74
2023-04-06T09:39:39.851Z,12.85
2023-04-06T09:40:45.597Z,13.01
2023-04-06T09:41:39.844Z,13.19
2023-04-06T09:42:39.847Z,13.24
2023-04-06T09:43:39.824Z,13.32
2023-04-06T09:44:39.792Z,13.53
2023-04-06T09:45:39.786Z,13.71
2023-04-06T09:46:51.193Z,13.93
2023-04-06T09:47:39.833Z,14.04
2023-04-06T09:48:39.818Z,14.19
2023-04-06T09:49:39.738Z,14.34
2023-04-06T09:50:39.719Z,14.54
2023-04-06T09:51:39.954Z,14.66
2023-04-06T09:52:39.705Z,14.78
2023-04-06T09:53:39.724Z,14.82
2023-04-06T09:54:39.676Z,14.85
2023-04-06T09:55:39.668Z,14.75
2023-04-06T09:56:39.658Z,14.79
2023-04-06T09:57:39.645Z,14.91
2023-04-06T09:58:39.719Z,14.69
2023-04-06T09:59:39.659Z,14.66
2023-04-06T10:00:39.656Z,14.75
2023-04-06T10:01:39.604Z,14.52
2023-04-06T10:02:39.643Z,14.56
2023-04-06T10:03:39.622Z,14.38
2023-04-06T10:04:39.581Z,14.49
2023-04-06T10:05:39.553Z,14.49
2023-04-06T10:06:39.539Z,14.53
2023-04-06T10:07:49.449Z,14.53
2023-04-06T10:08:39.519Z,14.66
2023-04-06T10:09:39.522Z,14.60
2023-04-06T10:10:39.512Z,14.35
2023-04-06T10:11:39.501Z,14.42
2023-04-06T10:12:39.468Z,14.69
2023-04-06T10:13:39.461Z,14.94
2023-04-06T10:14:39.460Z,15.09
2023-04-06T10:15:39.445Z,15.27
2023-04-06T10:16:39.467Z,15.31
2023-04-06T10:17:39.452Z,15.33
2023-04-06T10:18:39.403Z,15.40
2023-04-06T10:19:39.404Z,15.40
2023-04-06T10:20:39.370Z,15.46
2023-04-06T10:21:39.363Z,15.51
2023-04-06T10:22:39.347Z,15.48
2023-04-06T10:23:39.341Z,15.13
2023-04-06T10:24:39.324Z,15.30
2023-04-06T10:25:39.338Z,15.40
2023-04-06T10:26:39.325Z,15.40
2023-04-06T10:27:39.305Z,15.44
2023-04-06T10:28:39.284Z,15.05
2023-04-06T10:29:39.291Z,15.15
2023-04-06T10:30:39.264Z,15.31
2023-04-06T10:31:39.308Z,15.37
2023-04-06T10:32:39.243Z,15.55
2023-04-06T10:33:39.236Z,15.71
2023-04-06T10:34:39.232Z,15.46
2023-04-06T10:35:39.239Z,15.41
2023-04-06T10:36:39.236Z,15.40
2023-04-06T10:37:39.196Z,15.19
2023-04-06T10:38:41.346Z,15.01
2023-04-06T10:39:39.166Z,14.41
2023-04-06T10:40:39.163Z,14.35
2023-04-06T10:41:39.146Z,14.38
2023-04-06T10:42:39.161Z,14.57
2023-04-06T10:43:39.157Z,14.83
2023-04-06T10:44:39.110Z,14.85
2023-04-06T10:45:39.139Z,14.87
2023-04-06T10:46:39.085Z,14.97
2023-04-06T10:47:39.081Z,15.03
2023-04-06T10:48:39.135Z,15.01
2023-04-06T10:49:39.067Z,14.93
2023-04-06T10:50:39.049Z,14.80
2023-04-06T10:51:39.039Z,14.45
2023-04-06T10:52:39.020Z,14.57
2023-04-06T10:53:39.044Z,14.53
2023-04-06T10:54:39.009Z,14.57
2023-04-06T10:55:38.995Z,14.56
2023-04-06T10:56:38.977Z,14.56
2023-04-06T10:57:38.971Z,14.59
2023-04-06T10:58:39.121Z,14.87
2023-04-06T10:59:39.053Z,15.16
2023-04-06T11:00:49.642Z,15.33
2023-04-06T11:01:38.945Z,15.40
2023-04-06T11:02:38.963Z,15.34
2023-04-06T11:03:38.917Z,15.44
2023-04-06T11:04:38.969Z,15.58
2023-04-06T11:05:38.877Z,15.23
2023-04-06T11:06:38.857Z,14.59
2023-04-06T11:07:38.862Z,14.61
2023-04-06T11:08:39.145Z,14.93
2023-04-06T11:09:38.858Z,15.22
2023-04-06T11:10:38.807Z,15.33
2023-04-06T11:11:38.805Z,15.48
2023-04-06T11:12:38.798Z,15.55
2023-04-06T11:13:38.780Z,15.68
2023-04-06T11:14:38.767Z,15.80
2023-04-06T11:15:39.535Z,16.06
2023-04-06T11:16:38.750Z,16.30
2023-04-06T11:17:38.791Z,16.45
2023-04-06T11:18:38.921Z,16.65
2023-04-06T11:19:38.708Z,16.27
2023-04-06T11:20:38.745Z,15.89
2023-04-06T11:21:38.690Z,15.84
2023-04-06T11:22:38.677Z,15.91
2023-04-06T11:23:38.663Z,15.92
2023-04-06T11:24:38.649Z,16.10
2023-04-06T11:25:38.816Z,16.33
2023-04-06T11:26:38.646Z,16.55
2023-04-06T11:27:38.628Z,16.54
2023-04-06T11:28:38.753Z,16.72
2023-04-06T11:29:38.596Z,16.42
2023-04-06T11:30:38.590Z,16.25
2023-04-06T11:31:38.603Z,16.27
2023-04-06T11:32:38.611Z,16.25
2023-04-06T11:33:38.567Z,16.45
2023-04-06T11:34:38.579Z,16.18
2023-04-06T11:35:38.564Z,16.25
2023-04-06T11:36:38.518Z,15.86
2023-04-06T11:37:38.541Z,15.53
2023-04-06T11:38:38.675Z,15.56
2023-04-06T11:39:38.490Z,15.76
2023-04-06T11:40:38.466Z,15.98
2023-04-06T11:41:38.462Z,15.89
2023-04-06T11:42:38.455Z,16.16
2023-04-06T11:43:38.484Z,16.36
2023-04-06T11:44:38.433Z,16.23
2023-04-06T11:45:38.425Z,16.37
2023-04-06T11:46:38.449Z,15.92
2023-04-06T11:47:38.424Z,16.01
2023-04-06T11:48:38.619Z,16.29
2023-04-06T11:49:38.385Z,16.44
2023-04-06T11:50:38.366Z,16.51
2023-04-06T11:51:38.357Z,16.10
2023-04-06T11:52:38.345Z,15.88
2023-04-06T11:53:38.343Z,15.86
2023-04-06T11:54:38.350Z,16.03
2023-04-06T11:55:38.316Z,16.22
2023-04-06T11:56:38.287Z,16.40
2023-04-06T11:57:38.279Z,16.63
2023-04-06T11:58:38.532Z,16.87
2023-04-06T11:59:38.268Z,17.05
2023-04-06T12:00:38.262Z,17.22
2023-04-06T12:01:39.293Z,17.36
2023-04-06T12:02:38.322Z,17.45
2023-04-06T12:03:38.331Z,17.58
2023-04-06T12:04:38.299Z,17.17
2023-04-06T12:05:38.221Z,16.73
2023-04-06T12:06:38.177Z,16.82
2023-04-06T12:07:38.158Z,16.99
2023-04-06T12:08:38.265Z,17.12
2023-04-06T12:09:38.140Z,17.39
2023-04-06T12:10:38.144Z,17.54
2023-04-06T12:11:38.145Z,17.46
2023-04-06T12:12:38.109Z,17.54
2023-04-06T12:13:38.090Z,17.35
2023-04-06T12:14:38.111Z,17.30
2023-04-06T12:15:38.089Z,17.07
2023-04-06T12:16:38.179Z,17.18
2023-04-06T12:17:38.098Z,17.24
2023-04-06T12:18:38.176Z,17.35
2023-04-06T12:19:38.030Z,17.24
2023-04-06T12:20:38.036Z,17.20
2023-04-06T12:21:38.000Z,17.24
2023-04-06T12:22:38.002Z,16.77
2023-04-06T12:23:38.024Z,16.85
2023-04-06T12:24:37.981Z,17.06
2023-04-06T12:25:37.953Z,17.33
2023-04-06T12:26:37.953Z,17.42
2023-04-06T12:27:37.925Z,17.55
2023-04-06T12:28:38.002Z,17.68
2023-04-06T12:29:37.930Z,17.66
2023-04-06T12:30:37.908Z,17.70
2023-04-06T12:31:37.929Z,17.58
2023-04-06T12:32:37.989Z,17.60
2023-04-06T12:33:37.860Z,17.71
2023-04-06T12:34:37.866Z,17.76
2023-04-06T12:35:37.856Z,17.70
2023-04-06T12:36:37.861Z,17.65
2023-04-06T12:37:37.864Z,17.74
2023-04-06T12:38:37.808Z,17.70
2023-04-06T12:39:37.793Z,17.66
2023-04-06T12:40:37.803Z,17.79
2023-04-06T12:41:37.771Z,17.63
2023-04-06T12:42:37.766Z,16.77
2023-04-06T12:43:37.746Z,15.80
2023-04-06T12:44:37.743Z,15.44
2023-04-06T12:45:37.719Z,15.46
2023-04-06T12:46:37.774Z,15.62
2023-04-06T12:47:37.745Z,15.74
2023-04-06T12:48:37.691Z,15.98
2023-04-06T12:49:37.687Z,16.25
2023-04-06T12:50:37.701Z,16.48
2023-04-06T12:51:37.662Z,16.69
2023-04-06T12:52:37.664Z,16.91
2023-04-06T12:53:37.636Z,16.85
2023-04-06T12:54:37.636Z,16.96
2023-04-06T12:55:37.620Z,16.99
2023-04-06T12:56:37.645Z,17.15
2023-04-06T12:57:37.593Z,17.22
2023-04-06T12:58:37.577Z,17.21
2023-04-06T12:59:37.631Z,17.06
2023-04-06T13:00:37.639Z,16.92
2023-04-06T13:01:37.547Z,17.00
2023-04-06T13:02:37.619Z,17.03
2023-04-06T13:03:37.520Z,16.67
2023-04-06T13:04:37.507Z,16.69
2023-04-06T13:05:37.506Z,16.69
2023-04-06T13:06:37.492Z,16.66
2023-04-06T13:07:37.468Z,16.60
2023-04-06T13:08:37.535Z,16.54
2023-04-06T13:09:37.463Z,16.29